Flight Track Log - Related Links

Times and Time Zones

All times are in EDT time to prevent confusion due to time zone crossing. See the DAL1349 flight status page for this flight to view local times or setup timezone preferences in your user account.

Time Position Orientation Groundspeed Altitude Reporting Facility
EDT Latitude Longitude Course Direction KTS MPH feet Rate Location/Type
Mon 07:18:59 AM 38.3500 -81.6214 204° Southwest 140 161 3,000  Level Indianapolis Center
Mon 07:20:00 AM 38.3019 -81.6489 204° Southwest 185 213 5,100 2,557 Climbing Indianapolis Center
Mon 07:21:01 AM 38.2381 -81.6864 205° Southwest 246 283 8,200 2,976 Climbing Indianapolis Center
Mon 07:22:03 AM 38.1683 -81.7278 205° Southwest 272 313 11,200 2,829 Climbing Indianapolis Center
Mon 07:23:04 AM 38.0631 -81.7886 204° Southwest 343 395 14,000 2,656 Climbing Indianapolis Center
Mon 07:24:00 AM 37.9620 -81.8138 204° Southwest  Level FlightAware Approximate
Mon 07:24:05 AM 37.9694 -81.8428 205° Southwest 367 422 16,600  Level Indianapolis Center
Mon 07:25:07 AM 37.8703 -81.8992 204° Southwest 385 443 19,300 2,537 Climbing Indianapolis Center
Mon 07:26:08 AM 37.7686 -81.9556 204° Southwest 391 450 21,800 1,869 Climbing Indianapolis Center
Mon 07:27:09 AM 37.6561 -81.9911 194° South 414 476 23,100 1,475 Climbing Indianapolis Center
Mon 07:28:10 AM 37.5356 -82.0172 190° South 435 501 24,800 1,512 Climbing Indianapolis Center
Mon 07:29:12 AM 37.4103 -82.0439 190° South 451 519 26,200 1,366 Climbing Indianapolis Center
Mon 07:30:13 AM 37.2797 -82.0711 189° South 469 540 27,600 1,377 Climbing Indianapolis Center
Mon 07:31:14 AM 37.1456 -82.0978 189° South 481 554 29,000 1,171 Climbing Indianapolis Center
Mon 07:32:16 AM 37.0106 -82.1233 189° South 487 560 30,000 619 Climbing Indianapolis Center
Mon 07:32:51 AM 36.9219 -82.1642 200° South 483 556 30,000  Level Atlanta Center
Mon 07:33:51 AM 36.8019 -82.2292 203° Southwest 478 550 30,000  Level Atlanta Center
Mon 07:34:51 AM 36.6797 -82.2942 203° Southwest 478 550 30,000  Level Atlanta Center
Mon 07:35:51 AM 36.5597 -82.3561 203° Southwest 473 544 30,000  Level Atlanta Center
Mon 07:36:51 AM 36.4375 -82.4156 201° Southwest 473 544 30,000  Level Atlanta Center
Mon 07:37:51 AM 36.3194 -82.4772 203° Southwest 473 544 30,000  Level Atlanta Center
Mon 07:38:51 AM 36.2033 -82.5386 203° Southwest 465 535 30,000  Level Atlanta Center
Mon 07:39:51 AM 36.0872 -82.5972 202° Southwest 458 527 30,000  Level Atlanta Center
Mon 07:40:51 AM 35.9733 -82.6558 203° Southwest 452 520 30,000  Level Atlanta Center
Mon 07:41:51 AM 35.8572 -82.7167 203° Southwest 457 526 30,000  Level Atlanta Center
Mon 07:42:51 AM 35.7431 -82.7747 202° Southwest 457 526 30,000  Level Atlanta Center
Mon 07:43:51 AM 35.6392 -82.8275 202° Southwest 451 519 30,000 -250 Level Atlanta Center
Mon 07:44:51 AM 35.5272 -82.8853 203° Southwest 451 519 29,500 -750 Descending Atlanta Center
Mon 07:45:51 AM 35.4150 -82.9403 202° Southwest 451 519 28,500 -1,000 Descending Atlanta Center
Mon 07:46:51 AM 35.3050 -82.9953 202° Southwest 441 507 27,500 -1,100 Descending Atlanta Center
Mon 07:47:51 AM 35.1950 -83.0678 208° Southwest 421 484 26,300 -1,050 Descending Atlanta Center
Mon 07:48:51 AM 35.0953 -83.1400 211° Southwest 415 478 25,400 -950 Descending Atlanta Center
Mon 07:49:51 AM 34.9936 -83.2097 209° Southwest 415 478 24,400 -1,000 Descending Atlanta Center
Mon 07:50:51 AM 34.8917 -83.2842 211° Southwest 420 483 23,400 -1,000 Descending Atlanta Center
Mon 07:51:51 AM 34.7961 -83.3508 210° Southwest 415 478 22,400 -700 Descending Atlanta Center
Mon 07:52:51 AM 34.6944 -83.4222 210° Southwest 420 483 22,000 -200 Descending Atlanta Center
Mon 07:53:51 AM 34.5925 -83.4939 210° Southwest 425 489 22,000 -500 Level Atlanta Center
Mon 07:54:51 AM 34.4906 -83.5650 210° Southwest 425 489 21,000 4,000 Descending Atlanta Center
Mon 07:55:51 AM 34.3864 -83.6361 209° Southwest 425 489 30,000 -2,000 Climbing Atlanta Center
Mon 07:56:51 AM 34.2906 -83.7044 211° Southwest 420 483 17,000 -7,300 Descending Atlanta Center
Mon 07:57:51 AM 34.2072 -83.7600 209° Southwest 404 465 15,400 -1,250 Descending Atlanta Center
Mon 07:58:51 AM 34.1258 -83.8181 211° Southwest 367 422 14,500 -750 Descending Atlanta Center
Mon 07:59:51 AM 34.0572 -83.8783 216° Southwest 326 375 13,900 -1,100 Descending Atlanta Center
Mon 08:00:51 AM 33.9967 -83.9411 221° Southwest 296 341 12,300 -1,009 Descending Atlanta Center
Mon 08:01:44 AM 33.9333 -84.0000 218° Southwest 292 336 12,000 -159 Descending Atlanta TRACON
Mon 08:02:44 AM 33.8833 -84.0667 228° Southwest 292 336 12,000  Level Atlanta TRACON
Mon 08:03:50 AM 33.8000 -84.1333 214° Southwest 297 342 12,000  Level Atlanta TRACON
Mon 08:04:50 AM 33.7667 -84.2167 244° Southwest 283 326 12,000  Level Atlanta TRACON
Mon 08:05:50 AM 33.7500 -84.3167 259° West 284 327 12,000 -700 Level Atlanta TRACON
Mon 08:06:50 AM 33.7333 -84.4000 256° West 289 333 10,600 -1,450 Descending Atlanta TRACON
Mon 08:07:50 AM 33.7333 -84.5000 270° West 284 327 9,100 -1,550 Descending Atlanta TRACON
Mon 08:08:50 AM 33.7333 -84.5833 270° West 265 305 7,500 -1,600 Descending Atlanta TRACON
Mon 08:09:50 AM 33.7333 -84.6833 270° West 262 302 5,900 -1,250 Descending Atlanta TRACON
Mon 08:10:50 AM 33.7333 -84.7667 270° West 251 289 5,000 -400 Descending Atlanta TRACON
Mon 08:11:50 AM 33.7333 -84.8333 270° West 227 261 5,100  Climbing Atlanta TRACON
Mon 08:12:50 AM 33.7000 -84.8833 231° Southwest 236 272 5,000 -50 Descending Atlanta TRACON
Mon 08:13:50 AM 33.6500 -84.8167 132° Southeast 233 268 5,000  Level Atlanta TRACON
Mon 08:14:50 AM 33.6500 -84.7500 90° East 206 237 5,000  Level Atlanta TRACON
Mon 08:15:50 AM 33.6500 -84.6833 90° East 208 239 5,000 -550 Level Atlanta TRACON
Mon 08:16:50 AM 33.6500 -84.6167 90° East 210 242 3,900 -1,050 Descending Atlanta TRACON
Mon 08:17:50 AM 33.6500 -84.5500 90° East 177 204 2,900 -900 Descending Atlanta TRACON
Mon 08:18:50 AM 33.6500 -84.5000 90° East 134 154 2,100 -744 Descending Atlanta TRACON
Mon 08:19:51 AM 33.6500 -84.4667 90° East 123 142 1,400 -689 Descending Atlanta TRACON
Mon 08:21:00 AM 33.6367 -84.4279 64° Northeast  Level Estimated
Mon 08:28:00 AM 33.6367 -84.4279 64° Northeast  Level Estimated

Login

Don't have an account? Register now (free) for customized features, flight alerts, and more!